sensor_id;sensor_type;location;lat;lon;timestamp;pressure;altitude;pressure_sealevel;temperature;humidity
12624;BME280;6377;42.836;23.998;2023-11-21T00:00:37;95482.03;;;4.23;100.00
12624;BME280;6377;42.836;23.998;2023-11-21T00:03:05;95499.00;;;4.28;100.00
12624;BME280;6377;42.836;23.998;2023-11-21T00:05:32;95469.44;;;4.09;100.00
12624;BME280;6377;42.836;23.998;2023-11-21T00:08:01;95512.88;;;4.29;100.00
12624;BME280;6377;42.836;23.998;2023-11-21T00:10:29;95510.72;;;4.24;100.00
12624;BME280;6377;42.836;23.998;2023-11-21T00:12:56;95507.00;;;4.17;100.00
12624;BME280;6377;42.836;23.998;2023-11-21T00:15:23;95513.78;;;4.20;100.00
12624;BME280;6377;42.836;23.998;2023-11-21T00:17:52;95425.28;;;3.50;100.00
12624;BME280;6377;42.836;23.998;2023-11-21T00:20:19;95507.56;;;4.21;100.00
12624;BME280;6377;42.836;23.998;2023-11-21T00:22:47;95507.72;;;4.19;100.00
12624;BME280;6377;42.836;23.998;2023-11-21T00:25:16;95505.00;;;4.02;100.00
12624;BME280;6377;42.836;23.998;2023-11-21T00:27:45;95498.94;;;4.01;100.00
12624;BME280;6377;42.836;23.998;2023-11-21T00:30:13;95464.75;;;3.75;100.00
12624;BME280;6377;42.836;23.998;2023-11-21T00:32:40;95419.00;;;3.33;100.00
12624;BME280;6377;42.836;23.998;2023-11-21T00:35:08;95503.75;;;4.06;100.00
12624;BME280;6377;42.836;23.998;2023-11-21T00:37:35;95475.81;;;3.96;100.00
12624;BME280;6377;42.836;23.998;2023-11-21T00:40:05;95500.97;;;4.17;100.00
12624;BME280;6377;42.836;23.998;2023-11-21T00:42:33;95504.38;;;4.27;100.00
12624;BME280;6377;42.836;23.998;2023-11-21T00:45:03;95507.53;;;4.30;100.00
12624;BME280;6377;42.836;23.998;2023-11-21T00:47:31;95436.19;;;3.91;100.00
12624;BME280;6377;42.836;23.998;2023-11-21T00:49:59;95354.03;;;3.48;100.00
12624;BME280;6377;42.836;23.998;2023-11-21T00:52:26;95450.56;;;4.05;100.00
12624;BME280;6377;42.836;23.998;2023-11-21T00:54:53;95498.09;;;4.37;100.00
12624;BME280;6377;42.836;23.998;2023-11-21T00:57:20;95460.75;;;4.08;100.00
12624;BME280;6377;42.836;23.998;2023-11-21T00:59:48;95495.34;;;4.39;100.00
12624;BME280;6377;42.836;23.998;2023-11-21T01:02:17;95503.59;;;4.44;100.00
12624;BME280;6377;42.836;23.998;2023-11-21T01:04:44;95498.81;;;4.39;100.00
12624;BME280;6377;42.836;23.998;2023-11-21T01:07:13;95437.41;;;3.97;100.00
12624;BME280;6377;42.836;23.998;2023-11-21T01:09:40;95498.44;;;4.34;100.00
12624;BME280;6377;42.836;23.998;2023-11-21T01:12:09;95465.69;;;4.11;100.00
12624;BME280;6377;42.836;23.998;2023-11-21T01:14:37;95468.50;;;4.00;100.00
12624;BME280;6377;42.836;23.998;2023-11-21T01:17:04;95321.56;;;3.04;100.00
12624;BME280;6377;42.836;23.998;2023-11-21T01:19:33;95479.69;;;4.02;100.00
12624;BME280;6377;42.836;23.998;2023-11-21T01:22:01;95484.84;;;4.12;100.00
12624;BME280;6377;42.836;23.998;2023-11-21T01:24:28;95390.31;;;3.60;100.00
12624;BME280;6377;42.836;23.998;2023-11-21T01:26:55;95505.09;;;4.19;100.00
12624;BME280;6377;42.836;23.998;2023-11-21T01:29:22;95475.84;;;4.24;100.00
12624;BME280;6377;42.836;23.998;2023-11-21T01:31:49;95476.69;;;4.24;100.00
12624;BME280;6377;42.836;23.998;2023-11-21T01:34:17;95468.53;;;4.27;100.00
12624;BME280;6377;42.836;23.998;2023-11-21T01:36:47;95464.25;;;4.26;100.00
12624;BME280;6377;42.836;23.998;2023-11-21T01:39:14;95436.50;;;4.16;100.00
12624;BME280;6377;42.836;23.998;2023-11-21T01:41:43;95432.50;;;4.12;100.00
12624;BME280;6377;42.836;23.998;2023-11-21T01:44:11;95458.41;;;4.15;100.00
12624;BME280;6377;42.836;23.998;2023-11-21T01:46:39;95456.78;;;4.04;100.00
12624;BME280;6377;42.836;23.998;2023-11-21T01:49:07;95445.78;;;4.01;100.00
12624;BME280;6377;42.836;23.998;2023-11-21T01:51:35;95316.72;;;3.09;100.00
12624;BME280;6377;42.836;23.998;2023-11-21T01:54:05;95450.22;;;3.90;100.00
12624;BME280;6377;42.836;23.998;2023-11-21T01:56:32;95455.91;;;3.86;100.00
12624;BME280;6377;42.836;23.998;2023-11-21T01:59:00;95425.66;;;3.64;100.00
12624;BME280;6377;42.836;23.998;2023-11-21T02:01:27;95438.31;;;3.78;100.00
12624;BME280;6377;42.836;23.998;2023-11-21T02:03:54;95398.63;;;3.46;100.00
12624;BME280;6377;42.836;23.998;2023-11-21T02:06:21;95429.00;;;3.57;100.00
12624;BME280;6377;42.836;23.998;2023-11-21T02:08:50;95449.06;;;3.75;100.00
12624;BME280;6377;42.836;23.998;2023-11-21T02:11:18;95315.94;;;2.89;100.00
12624;BME280;6377;42.836;23.998;2023-11-21T02:13:45;95454.53;;;3.82;100.00
12624;BME280;6377;42.836;23.998;2023-11-21T02:16:15;95409.66;;;3.40;100.00
12624;BME280;6377;42.836;23.998;2023-11-21T02:18:43;95451.81;;;3.74;100.00
12624;BME280;6377;42.836;23.998;2023-11-21T02:21:10;95443.13;;;3.73;100.00
12624;BME280;6377;42.836;23.998;2023-11-21T02:23:38;95453.31;;;3.76;100.00
12624;BME280;6377;42.836;23.998;2023-11-21T02:26:10;95432.84;;;3.62;100.00
12624;BME280;6377;42.836;23.998;2023-11-21T02:28:37;95459.09;;;3.80;100.00
12624;BME280;6377;42.836;23.998;2023-11-21T02:31:04;95414.56;;;3.53;100.00
12624;BME280;6377;42.836;23.998;2023-11-21T02:33:33;95444.34;;;3.79;100.00
12624;BME280;6377;42.836;23.998;2023-11-21T02:36:00;95445.97;;;3.89;100.00
12624;BME280;6377;42.836;23.998;2023-11-21T02:38:27;95424.69;;;3.75;100.00
12624;BME280;6377;42.836;23.998;2023-11-21T02:40:57;95443.34;;;3.89;100.00
12624;BME280;6377;42.836;23.998;2023-11-21T02:43:25;95438.41;;;3.86;100.00
12624;BME280;6377;42.836;23.998;2023-11-21T02:45:52;95436.09;;;3.74;100.00
12624;BME280;6377;42.836;23.998;2023-11-21T02:48:19;95331.06;;;2.86;100.00
12624;BME280;6377;42.836;23.998;2023-11-21T02:50:49;95420.91;;;3.40;100.00
12624;BME280;6377;42.836;23.998;2023-11-21T02:53:16;95295.94;;;2.61;100.00
12624;BME280;6377;42.836;23.998;2023-11-21T02:55:44;95441.97;;;3.49;100.00
12624;BME280;6377;42.836;23.998;2023-11-21T02:58:12;95442.38;;;3.44;100.00
12624;BME280;6377;42.836;23.998;2023-11-21T03:00:40;95433.13;;;3.50;100.00
12624;BME280;6377;42.836;23.998;2023-11-21T03:03:08;95438.13;;;3.43;100.00
12624;BME280;6377;42.836;23.998;2023-11-21T03:05:35;95321.91;;;2.43;100.00
12624;BME280;6377;42.836;23.998;2023-11-21T03:08:03;95437.00;;;3.46;100.00
12624;BME280;6377;42.836;23.998;2023-11-21T03:10:31;95438.25;;;3.51;100.00
12624;BME280;6377;42.836;23.998;2023-11-21T03:12:58;95431.91;;;3.54;100.00
12624;BME280;6377;42.836;23.998;2023-11-21T03:15:27;95430.38;;;3.61;100.00
12624;BME280;6377;42.836;23.998;2023-11-21T03:17:54;95401.16;;;3.28;100.00
12624;BME280;6377;42.836;23.998;2023-11-21T03:20:22;95433.94;;;3.69;100.00
12624;BME280;6377;42.836;23.998;2023-11-21T03:22:49;95425.38;;;3.67;100.00
12624;BME280;6377;42.836;23.998;2023-11-21T03:25:17;95434.03;;;3.77;100.00
12624;BME280;6377;42.836;23.998;2023-11-21T03:27:44;95427.69;;;3.80;100.00
12624;BME280;6377;42.836;23.998;2023-11-21T03:30:11;95307.00;;;3.01;100.00
12624;BME280;6377;42.836;23.998;2023-11-21T03:32:40;95391.03;;;3.53;100.00
12624;BME280;6377;42.836;23.998;2023-11-21T03:35:07;95416.44;;;3.70;100.00
12624;BME280;6377;42.836;23.998;2023-11-21T03:37:35;95388.19;;;3.27;100.00
12624;BME280;6377;42.836;23.998;2023-11-21T03:40:05;95430.63;;;3.67;100.00
12624;BME280;6377;42.836;23.998;2023-11-21T03:42:33;95428.00;;;3.67;100.00
12624;BME280;6377;42.836;23.998;2023-11-21T03:45:01;95432.56;;;3.65;100.00
12624;BME280;6377;42.836;23.998;2023-11-21T03:47:28;95435.31;;;3.64;100.00
12624;BME280;6377;42.836;23.998;2023-11-21T03:49:57;95375.56;;;3.22;100.00
12624;BME280;6377;42.836;23.998;2023-11-21T03:52:25;95422.72;;;3.40;100.00
12624;BME280;6377;42.836;23.998;2023-11-21T03:54:52;95435.34;;;3.54;100.00
12624;BME280;6377;42.836;23.998;2023-11-21T03:57:20;95435.72;;;3.59;100.00
12624;BME280;6377;42.836;23.998;2023-11-21T03:59:47;95427.47;;;3.64;100.00
12624;BME280;6377;42.836;23.998;2023-11-21T04:02:15;95417.16;;;3.62;100.00
12624;BME280;6377;42.836;23.998;2023-11-21T04:04:42;95422.38;;;3.62;100.00
12624;BME280;6377;42.836;23.998;2023-11-21T04:07:11;95294.41;;;2.68;100.00
12624;BME280;6377;42.836;23.998;2023-11-21T04:09:39;95428.44;;;3.53;100.00
12624;BME280;6377;42.836;23.998;2023-11-21T04:12:07;95216.19;;;2.20;100.00
12624;BME280;6377;42.836;23.998;2023-11-21T04:14:35;95364.47;;;3.11;100.00
12624;BME280;6377;42.836;23.998;2023-11-21T04:17:02;95441.41;;;3.45;100.00
12624;BME280;6377;42.836;23.998;2023-11-21T04:19:30;95444.31;;;3.32;100.00
12624;BME280;6377;42.836;23.998;2023-11-21T04:21:57;95445.84;;;3.25;100.00
12624;BME280;6377;42.836;23.998;2023-11-21T04:24:25;95445.97;;;3.33;100.00
12624;BME280;6377;42.836;23.998;2023-11-21T04:26:53;95442.81;;;3.39;100.00
12624;BME280;6377;42.836;23.998;2023-11-21T04:29:20;95439.19;;;3.40;100.00
12624;BME280;6377;42.836;23.998;2023-11-21T04:31:48;95340.84;;;2.83;100.00
12624;BME280;6377;42.836;23.998;2023-11-21T04:34:15;95443.47;;;3.51;100.00
12624;BME280;6377;42.836;23.998;2023-11-21T04:36:43;95435.06;;;3.57;100.00
12624;BME280;6377;42.836;23.998;2023-11-21T04:39:10;95439.03;;;3.61;100.00
12624;BME280;6377;42.836;23.998;2023-11-21T04:41:38;95435.59;;;3.61;100.00
12624;BME280;6377;42.836;23.998;2023-11-21T04:44:06;95360.34;;;2.99;100.00
12624;BME280;6377;42.836;23.998;2023-11-21T04:46:33;95434.53;;;3.44;100.00
12624;BME280;6377;42.836;23.998;2023-11-21T04:49:00;95414.72;;;3.42;100.00
12624;BME280;6377;42.836;23.998;2023-11-21T04:51:28;95412.50;;;3.47;100.00
12624;BME280;6377;42.836;23.998;2023-11-21T04:53:55;95420.22;;;3.48;100.00
12624;BME280;6377;42.836;23.998;2023-11-21T04:56:22;95420.31;;;3.56;100.00
12624;BME280;6377;42.836;23.998;2023-11-21T04:58:52;95390.44;;;3.12;100.00
12624;BME280;6377;42.836;23.998;2023-11-21T05:01:19;95433.66;;;3.63;100.00
12624;BME280;6377;42.836;23.998;2023-11-21T05:03:47;95379.81;;;3.33;100.00
12624;BME280;6377;42.836;23.998;2023-11-21T05:06:14;95421.69;;;3.60;100.00
12624;BME280;6377;42.836;23.998;2023-11-21T05:08:42;95452.19;;;3.79;100.00
12624;BME280;6377;42.836;23.998;2023-11-21T05:11:09;95436.50;;;3.79;100.00
12624;BME280;6377;42.836;23.998;2023-11-21T05:13:37;95366.34;;;3.28;100.00
12624;BME280;6377;42.836;23.998;2023-11-21T05:16:07;95422.25;;;3.64;100.00
12624;BME280;6377;42.836;23.998;2023-11-21T05:18:34;95372.13;;;3.31;100.00
12624;BME280;6377;42.836;23.998;2023-11-21T05:21:01;95395.81;;;3.67;100.00
12624;BME280;6377;42.836;23.998;2023-11-21T05:23:29;95430.66;;;3.94;100.00
12624;BME280;6377;42.836;23.998;2023-11-21T05:25:56;95423.19;;;3.72;100.00
12624;BME280;6377;42.836;23.998;2023-11-21T05:28:23;95425.50;;;3.75;100.00
12624;BME280;6377;42.836;23.998;2023-11-21T05:30:51;95432.75;;;3.91;100.00
12624;BME280;6377;42.836;23.998;2023-11-21T05:33:20;95312.31;;;3.19;100.00
12624;BME280;6377;42.836;23.998;2023-11-21T05:35:47;95397.81;;;3.73;100.00
12624;BME280;6377;42.836;23.998;2023-11-21T05:38:14;95381.09;;;3.66;100.00
12624;BME280;6377;42.836;23.998;2023-11-21T05:40:41;95316.41;;;3.31;100.00
12624;BME280;6377;42.836;23.998;2023-11-21T05:43:09;95421.69;;;3.97;100.00
12624;BME280;6377;42.836;23.998;2023-11-21T05:45:37;95422.53;;;3.97;100.00
12624;BME280;6377;42.836;23.998;2023-11-21T05:48:04;95429.84;;;3.94;100.00
12624;BME280;6377;42.836;23.998;2023-11-21T05:50:33;95439.47;;;3.93;100.00
12624;BME280;6377;42.836;23.998;2023-11-21T05:53:00;95430.56;;;3.86;100.00
12624;BME280;6377;42.836;23.998;2023-11-21T05:55:28;95415.75;;;3.68;100.00
12624;BME280;6377;42.836;23.998;2023-11-21T05:57:55;95416.44;;;3.70;100.00
12624;BME280;6377;42.836;23.998;2023-11-21T06:00:22;95292.06;;;2.65;100.00
12624;BME280;6377;42.836;23.998;2023-11-21T06:02:52;95411.25;;;3.51;100.00
12624;BME280;6377;42.836;23.998;2023-11-21T06:05:21;95332.44;;;2.99;100.00
12624;BME280;6377;42.836;23.998;2023-11-21T06:07:50;95438.31;;;3.78;100.00
12624;BME280;6377;42.836;23.998;2023-11-21T06:10:20;95409.69;;;3.67;100.00
12624;BME280;6377;42.836;23.998;2023-11-21T06:12:48;95360.66;;;3.42;100.00
12624;BME280;6377;42.836;23.998;2023-11-21T06:15:15;95435.56;;;4.07;100.00
12624;BME280;6377;42.836;23.998;2023-11-21T06:17:44;95432.75;;;4.18;100.00
12624;BME280;6377;42.836;23.998;2023-11-21T06:20:15;95422.28;;;4.18;100.00
12624;BME280;6377;42.836;23.998;2023-11-21T06:22:45;95429.38;;;4.35;100.00
12624;BME280;6377;42.836;23.998;2023-11-21T06:25:14;95422.69;;;4.23;100.00
12624;BME280;6377;42.836;23.998;2023-11-21T06:27:43;95435.91;;;4.49;100.00
12624;BME280;6377;42.836;23.998;2023-11-21T06:30:10;95438.75;;;4.56;100.00
12624;BME280;6377;42.836;23.998;2023-11-21T06:32:39;95314.69;;;3.76;100.00
12624;BME280;6377;42.836;23.998;2023-11-21T06:35:07;95444.22;;;4.62;100.00
12624;BME280;6377;42.836;23.998;2023-11-21T06:37:35;95451.22;;;4.71;100.00
12624;BME280;6377;42.836;23.998;2023-11-21T06:40:04;95426.03;;;4.43;100.00
12624;BME280;6377;42.836;23.998;2023-11-21T06:42:33;95368.88;;;4.11;100.00
12624;BME280;6377;42.836;23.998;2023-11-21T06:45:00;95436.84;;;4.75;100.00
12624;BME280;6377;42.836;23.998;2023-11-21T06:47:29;95446.13;;;4.87;100.00
12624;BME280;6377;42.836;23.998;2023-11-21T06:49:56;95450.63;;;4.95;100.00
12624;BME280;6377;42.836;23.998;2023-11-21T06:52:25;95445.31;;;4.87;100.00
12624;BME280;6377;42.836;23.998;2023-11-21T06:54:52;95430.03;;;4.82;100.00
12624;BME280;6377;42.836;23.998;2023-11-21T06:57:20;95322.69;;;4.02;100.00
12624;BME280;6377;42.836;23.998;2023-11-21T06:59:49;95315.53;;;4.22;100.00
12624;BME280;6377;42.836;23.998;2023-11-21T07:02:17;95349.81;;;4.46;100.00
12624;BME280;6377;42.836;23.998;2023-11-21T07:04:45;95450.94;;;5.09;100.00
12624;BME280;6377;42.836;23.998;2023-11-21T07:07:12;95346.19;;;4.65;100.00
12624;BME280;6377;42.836;23.998;2023-11-21T07:09:42;95439.00;;;5.33;100.00
12624;BME280;6377;42.836;23.998;2023-11-21T07:12:10;95384.88;;;5.06;100.00
12624;BME280;6377;42.836;23.998;2023-11-21T07:14:37;95432.47;;;5.37;100.00
12624;BME280;6377;42.836;23.998;2023-11-21T07:17:08;95400.75;;;5.22;100.00
12624;BME280;6377;42.836;23.998;2023-11-21T07:19:35;95420.03;;;5.64;100.00
12624;BME280;6377;42.836;23.998;2023-11-21T07:22:02;95446.53;;;5.79;100.00
12624;BME280;6377;42.836;23.998;2023-11-21T07:24:31;95394.00;;;5.71;100.00
12624;BME280;6377;42.836;23.998;2023-11-21T07:26:58;95386.50;;;5.76;100.00
12624;BME280;6377;42.836;23.998;2023-11-21T07:29:26;95409.66;;;6.06;100.00
12624;BME280;6377;42.836;23.998;2023-11-21T07:31:55;95410.81;;;6.12;100.00
12624;BME280;6377;42.836;23.998;2023-11-21T07:34:24;95208.09;;;5.00;100.00
12624;BME280;6377;42.836;23.998;2023-11-21T07:36:51;95404.50;;;6.31;100.00
12624;BME280;6377;42.836;23.998;2023-11-21T07:39:18;95374.44;;;6.25;100.00
12624;BME280;6377;42.836;23.998;2023-11-21T07:41:47;95399.91;;;6.33;100.00
12624;BME280;6377;42.836;23.998;2023-11-21T07:44:16;95238.56;;;5.35;100.00
12624;BME280;6377;42.836;23.998;2023-11-21T07:46:45;95362.00;;;6.35;100.00
12624;BME280;6377;42.836;23.998;2023-11-21T07:49:12;95402.50;;;6.83;100.00
12624;BME280;6377;42.836;23.998;2023-11-21T07:51:43;95398.56;;;6.87;100.00
12624;BME280;6377;42.836;23.998;2023-11-21T07:54:10;95244.91;;;6.08;100.00
12624;BME280;6377;42.836;23.998;2023-11-21T07:56:37;95406.81;;;7.16;100.00
12624;BME280;6377;42.836;23.998;2023-11-21T07:59:04;95399.41;;;7.19;100.00
12624;BME280;6377;42.836;23.998;2023-11-21T08:01:32;95377.22;;;7.22;100.00
12624;BME280;6377;42.836;23.998;2023-11-21T08:03:59;95390.34;;;7.46;100.00
12624;BME280;6377;42.836;23.998;2023-11-21T08:06:29;95363.22;;;7.54;100.00
12624;BME280;6377;42.836;23.998;2023-11-21T08:08:57;95394.41;;;7.89;100.00
12624;BME280;6377;42.836;23.998;2023-11-21T08:11:25;95363.63;;;7.89;100.00
12624;BME280;6377;42.836;23.998;2023-11-21T08:13:54;95372.69;;;8.26;100.00
12624;BME280;6377;42.836;23.998;2023-11-21T08:16:22;95381.50;;;8.49;100.00
12624;BME280;6377;42.836;23.998;2023-11-21T08:18:49;95375.81;;;8.68;100.00
12624;BME280;6377;42.836;23.998;2023-11-21T08:21:17;95363.63;;;8.90;100.00
12624;BME280;6377;42.836;23.998;2023-11-21T08:23:44;95373.06;;;9.07;100.00
12624;BME280;6377;42.836;23.998;2023-11-21T08:26:15;95363.78;;;9.34;100.00
12624;BME280;6377;42.836;23.998;2023-11-21T08:28:43;95375.59;;;9.61;98.98
12624;BME280;6377;42.836;23.998;2023-11-21T08:31:11;95374.06;;;9.81;94.16
12624;BME280;6377;42.836;23.998;2023-11-21T08:33:38;95371.03;;;10.21;91.33
12624;BME280;6377;42.836;23.998;2023-11-21T08:36:07;95361.44;;;10.35;87.60
12624;BME280;6377;42.836;23.998;2023-11-21T08:38:35;95370.91;;;10.44;83.34
12624;BME280;6377;42.836;23.998;2023-11-21T08:41:05;95365.31;;;10.68;77.34
12624;BME280;6377;42.836;23.998;2023-11-21T08:43:35;95366.03;;;10.77;78.16
12624;BME280;6377;42.836;23.998;2023-11-21T08:46:05;95344.97;;;10.90;76.75
12624;BME280;6377;42.836;23.998;2023-11-21T08:48:35;95346.81;;;11.32;74.17
12624;BME280;6377;42.836;23.998;2023-11-21T08:51:02;95339.47;;;11.34;68.83
12624;BME280;6377;42.836;23.998;2023-11-21T08:53:30;95376.47;;;11.48;69.55
12624;BME280;6377;42.836;23.998;2023-11-21T08:55:58;95321.69;;;11.49;72.48
12624;BME280;6377;42.836;23.998;2023-11-21T08:58:26;95341.25;;;12.03;69.54
12624;BME280;6377;42.836;23.998;2023-11-21T09:00:54;95314.94;;;12.02;67.83
12624;BME280;6377;42.836;23.998;2023-11-21T09:03:21;95343.66;;;12.39;65.38
12624;BME280;6377;42.836;23.998;2023-11-21T09:05:49;95333.88;;;12.40;66.34
12624;BME280;6377;42.836;23.998;2023-11-21T09:08:16;95284.94;;;12.35;65.11
12624;BME280;6377;42.836;23.998;2023-11-21T09:10:43;95353.66;;;12.98;63.04
12624;BME280;6377;42.836;23.998;2023-11-21T09:13:13;95290.63;;;13.06;60.44
12624;BME280;6377;42.836;23.998;2023-11-21T09:15:42;95312.69;;;13.33;60.54
12624;BME280;6377;42.836;23.998;2023-11-21T09:18:13;95160.94;;;12.64;58.57
12624;BME280;6377;42.836;23.998;2023-11-21T09:20:40;95264.69;;;13.61;57.99
12624;BME280;6377;42.836;23.998;2023-11-21T09:23:08;95252.56;;;13.84;55.04
12624;BME280;6377;42.836;23.998;2023-11-21T09:25:35;95303.59;;;14.19;55.53
12624;BME280;6377;42.836;23.998;2023-11-21T09:28:03;95206.56;;;13.84;52.89
12624;BME280;6377;42.836;23.998;2023-11-21T09:30:33;95149.91;;;13.90;50.58
12624;BME280;6377;42.836;23.998;2023-11-21T09:33:00;95293.06;;;14.88;47.99
12624;BME280;6377;42.836;23.998;2023-11-21T09:35:29;95237.78;;;14.90;46.39
12624;BME280;6377;42.836;23.998;2023-11-21T09:37:57;95096.88;;;14.01;43.06
12624;BME280;6377;42.836;23.998;2023-11-21T09:40:24;95248.31;;;14.79;43.49
12624;BME280;6377;42.836;23.998;2023-11-21T09:42:55;95274.06;;;14.85;43.28
12624;BME280;6377;42.836;23.998;2023-11-21T09:45:25;95267.66;;;14.92;44.26
12624;BME280;6377;42.836;23.998;2023-11-21T09:47:54;95247.19;;;14.62;43.37
12624;BME280;6377;42.836;23.998;2023-11-21T09:50:22;95257.81;;;14.62;43.56
12624;BME280;6377;42.836;23.998;2023-11-21T09:52:55;95121.19;;;13.61;43.74
12624;BME280;6377;42.836;23.998;2023-11-21T09:55:27;95272.84;;;14.49;44.29
12624;BME280;6377;42.836;23.998;2023-11-21T09:57:56;95125.09;;;13.52;43.96
12624;BME280;6377;42.836;23.998;2023-11-21T10:00:24;95244.66;;;14.35;44.08
12624;BME280;6377;42.836;23.998;2023-11-21T10:02:54;95232.53;;;14.39;43.78
12624;BME280;6377;42.836;23.998;2023-11-21T10:05:22;95187.06;;;14.03;43.70
12624;BME280;6377;42.836;23.998;2023-11-21T10:07:51;95232.66;;;14.57;43.53
12624;BME280;6377;42.836;23.998;2023-11-21T10:10:20;95130.06;;;14.24;43.43
12624;BME280;6377;42.836;23.998;2023-11-21T10:12:50;95194.94;;;14.92;42.57
12624;BME280;6377;42.836;23.998;2023-11-21T10:15:21;95182.63;;;15.22;42.88
12624;BME280;6377;42.836;23.998;2023-11-21T10:17:49;95081.22;;;14.74;42.04
12624;BME280;6377;42.836;23.998;2023-11-21T10:20:19;95150.75;;;15.34;41.10
12624;BME280;6377;42.836;23.998;2023-11-21T10:22:46;95147.41;;;15.20;42.09
12624;BME280;6377;42.836;23.998;2023-11-21T10:25:15;95174.34;;;15.55;40.76
12624;BME280;6377;42.836;23.998;2023-11-21T10:27:47;95140.13;;;15.52;40.82
12624;BME280;6377;42.836;23.998;2023-11-21T10:30:16;95149.63;;;15.66;41.18
12624;BME280;6377;42.836;23.998;2023-11-21T10:32:44;95157.00;;;16.00;40.67
12624;BME280;6377;42.836;23.998;2023-11-21T10:35:12;95166.09;;;16.29;39.68
12624;BME280;6377;42.836;23.998;2023-11-21T10:37:39;95168.22;;;16.20;40.64
12624;BME280;6377;42.836;23.998;2023-11-21T10:40:08;95165.75;;;16.37;40.40
12624;BME280;6377;42.836;23.998;2023-11-21T10:42:39;95116.16;;;16.00;40.17
12624;BME280;6377;42.836;23.998;2023-11-21T10:45:06;95096.72;;;15.99;40.37
12624;BME280;6377;42.836;23.998;2023-11-21T10:47:39;95150.28;;;16.27;39.70
12624;BME280;6377;42.836;23.998;2023-11-21T10:50:06;95143.13;;;16.58;39.25
12624;BME280;6377;42.836;23.998;2023-11-21T10:52:36;95137.22;;;16.67;39.41
12624;BME280;6377;42.836;23.998;2023-11-21T10:55:16;95140.50;;;16.81;39.45
12624;BME280;6377;42.836;23.998;2023-11-21T10:57:46;95136.19;;;16.68;39.41
12624;BME280;6377;42.836;23.998;2023-11-21T11:00:16;95117.63;;;16.85;39.19
12624;BME280;6377;42.836;23.998;2023-11-21T11:02:46;95100.53;;;16.63;38.93
12624;BME280;6377;42.836;23.998;2023-11-21T11:05:15;94999.72;;;15.82;39.52
12624;BME280;6377;42.836;23.998;2023-11-21T11:07:48;95100.47;;;16.51;39.01
12624;BME280;6377;42.836;23.998;2023-11-21T11:10:21;95044.91;;;16.18;39.75
12624;BME280;6377;42.836;23.998;2023-11-21T11:12:50;95004.94;;;15.89;39.12
12624;BME280;6377;42.836;23.998;2023-11-21T11:15:18;95100.44;;;16.40;39.63
12624;BME280;6377;42.836;23.998;2023-11-21T11:17:46;95089.28;;;16.31;40.04
12624;BME280;6377;42.836;23.998;2023-11-21T11:20:14;95090.59;;;16.10;40.76
12624;BME280;6377;42.836;23.998;2023-11-21T11:22:50;95094.69;;;15.95;40.57
12624;BME280;6377;42.836;23.998;2023-11-21T11:25:27;95092.09;;;15.88;41.06
12624;BME280;6377;42.836;23.998;2023-11-21T11:28:04;95098.50;;;15.87;41.23
12624;BME280;6377;42.836;23.998;2023-11-21T11:30:41;95090.94;;;15.84;40.90
12624;BME280;6377;42.836;23.998;2023-11-21T11:33:24;95084.81;;;15.84;41.11
12624;BME280;6377;42.836;23.998;2023-11-21T11:35:57;95043.38;;;15.51;41.28
12624;BME280;6377;42.836;23.998;2023-11-21T11:38:31;95068.34;;;15.87;41.28
12624;BME280;6377;42.836;23.998;2023-11-21T11:41:01;95071.47;;;15.84;40.80
12624;BME280;6377;42.836;23.998;2023-11-21T11:43:32;94939.94;;;14.94;41.74
12624;BME280;6377;42.836;23.998;2023-11-21T11:46:09;94930.41;;;14.86;41.70
12624;BME280;6377;42.836;23.998;2023-11-21T11:48:41;94906.81;;;14.72;40.86
12624;BME280;6377;42.836;23.998;2023-11-21T11:51:12;94987.13;;;15.23;41.08
12624;BME280;6377;42.836;23.998;2023-11-21T11:53:46;95067.66;;;15.61;41.84
12624;BME280;6377;42.836;23.998;2023-11-21T11:56:24;95084.09;;;15.58;42.13
12624;BME280;6377;42.836;23.998;2023-11-21T11:59:22;95058.00;;;15.42;41.84
12624;BME280;6377;42.836;23.998;2023-11-21T12:01:51;95056.16;;;15.43;42.71
12624;BME280;6377;42.836;23.998;2023-11-21T12:04:26;95035.22;;;15.28;42.66
12624;BME280;6377;42.836;23.998;2023-11-21T12:07:01;94945.28;;;14.76;42.79
12624;BME280;6377;42.836;23.998;2023-11-21T12:09:31;94911.53;;;14.51;42.50
12624;BME280;6377;42.836;23.998;2023-11-21T12:11:58;94978.69;;;14.90;42.87
12624;BME280;6377;42.836;23.998;2023-11-21T12:14:28;95001.47;;;15.04;42.84
12624;BME280;6377;42.836;23.998;2023-11-21T12:16:58;95042.19;;;15.29;42.69
12624;BME280;6377;42.836;23.998;2023-11-21T12:19:26;94914.59;;;14.30;42.99
12624;BME280;6377;42.836;23.998;2023-11-21T12:21:53;94949.22;;;14.48;42.51
12624;BME280;6377;42.836;23.998;2023-11-21T12:24:21;95069.00;;;15.09;43.04
12624;BME280;6377;42.836;23.998;2023-11-21T12:26:49;95046.75;;;15.04;43.64
12624;BME280;6377;42.836;23.998;2023-11-21T12:29:17;94966.16;;;14.29;43.72
12624;BME280;6377;42.836;23.998;2023-11-21T12:31:54;94946.78;;;14.22;44.18
12624;BME280;6377;42.836;23.998;2023-11-21T12:34:25;95069.53;;;15.00;44.12
12624;BME280;6377;42.836;23.998;2023-11-21T12:36:52;94917.16;;;13.69;44.70
12624;BME280;6377;42.836;23.998;2023-11-21T12:39:20;95002.47;;;14.17;44.72
12624;BME280;6377;42.836;23.998;2023-11-21T12:41:48;95067.91;;;14.74;44.47
12624;BME280;6377;42.836;23.998;2023-11-21T12:44:16;95007.81;;;14.17;45.38
12624;BME280;6377;42.836;23.998;2023-11-21T12:46:45;94982.69;;;13.82;45.28
12624;BME280;6377;42.836;23.998;2023-11-21T12:49:13;94975.47;;;13.89;44.71
12624;BME280;6377;42.836;23.998;2023-11-21T12:51:43;94895.09;;;13.37;44.97
12624;BME280;6377;42.836;23.998;2023-11-21T12:54:12;95097.69;;;14.40;46.32
12624;BME280;6377;42.836;23.998;2023-11-21T12:56:41;95027.66;;;14.15;45.11
12624;BME280;6377;42.836;23.998;2023-11-21T12:59:08;95040.13;;;14.14;46.27
12624;BME280;6377;42.836;23.998;2023-11-21T13:01:42;94989.47;;;13.78;46.58
12624;BME280;6377;42.836;23.998;2023-11-21T13:04:10;95086.22;;;14.39;46.04
12624;BME280;6377;42.836;23.998;2023-11-21T13:06:38;95033.59;;;14.10;46.08